Flight Briefing for CPX408

Departure Arrival
Tulsa International Airport (KTUL)
Click to view FAA NOTAMS
Chicago/Rockford International Airport (KRFD)
Click to view FAA NOTAMS
Departure Time Arrival Time
N/A N/A
Aircraft Distance
B757-200SF 479nm
Departure METAR Arrival METAR
KTUL 250153Z 17014KT 10SM FEW150 OVC250 28/20 A2990 RMK AO2 PK WND 17028/0105 SLP116 T02780200 KRFD 250154Z 13003KT 10SM SCT042 SCT150 22/20 A2990 RMK AO2 SLP122 T02170200
Suggested Route
TUL5 EOS J181 BAYLI J105 BDF


View recent IFR Routes data
Notes



Charts and Procedures

Charts for KTUL
No chart available
Charts for KRFD
No chart available

Windy.com Weather Map